WAT weather

Waterford Airport
Waterford, County Waterford, Ireland

Public forecast

Using degrees Celsius for public forecast. Weather courtesy of forecast.io.

METAR (pilot weather report)

Report is more than 2 hours old.

Retrieved 2019/06/20 20:30 UTC (4 hours ago):

EIWF 202030Z 33005KT CAVOK ///// Q1014

TAF (pilot weather forecast)

Forecast is more than 12 hours old.

Closest forecast is Cork Airport, 55.9 nm (103.5 km) WSW. Retrieved 2019/06/20 00:10 UTC (1 day ago):

TAF EICK 202300Z 2100/2124 29006KT 9999 FEW020 TEMPO 2103/2106 3000 BR BKN008